Time;durP1;ratioP1;P1;durP2;ratioP2;P2;SDS_P1;SDS_P2;PMS_P1;PMS_P2;Temp;Humidity;BMP_temperature;BMP_pressure;BME280_temperature;BME280_humidity;BME280_pressure;Samples;Min_cycle;Max_cycle;Signal;HPM_P1;HPM_P2
2022/01/01 00:00:41;;;;;;;;;;;19.70;61.10;;;;;;4994720;28;20309;-89
2022/01/01 00:03:07;;;;;;;;;;;19.70;61.10;;;;;;5015432;28;20011;-89
2022/01/01 00:05:32;;;;;;;;;;;19.70;61.10;;;;;;4998499;28;19918;-90
2022/01/01 00:07:59;;;;;;;;;;;19.70;61.30;;;;;;4997198;28;20292;-90
2022/01/01 00:10:25;;;;;;;;;;;19.70;61.00;;;;;;4997576;28;19913;-90
2022/01/01 00:12:50;;;;;;;;;;;19.70;61.10;;;;;;4997511;28;19917;-90
2022/01/01 00:15:20;;;;;;;;;;;19.70;61.10;;;;;;5000282;28;19917;-91
2022/01/01 00:17:45;;;;;;;;;;;19.70;61.00;;;;;;4994377;28;20348;-91
2022/01/01 00:20:14;;;;;;;;;;;19.70;60.80;;;;;;4996619;28;19956;-90
2022/01/01 00:22:40;;;;;;;;;;;19.70;61.00;;;;;;5009857;28;19925;-90
2022/01/01 00:25:06;;;;;;;;;;;19.70;60.80;;;;;;5010702;28;20415;-91
2022/01/01 00:27:32;;;;;;;;;;;19.70;60.80;;;;;;5007182;28;20356;-90
2022/01/01 00:29:58;;;;;;;;;;;19.60;60.90;;;;;;5013574;28;20005;-90
2022/01/01 00:32:23;;;;;;;;;;;19.70;61.00;;;;;;4997176;28;19925;-90
2022/01/01 00:34:50;;;;;;;;;;;19.70;61.10;;;;;;5013389;28;19936;-89
2022/01/01 00:37:18;;;;;;;;;;;19.70;61.20;;;;;;4998537;28;20024;-91
2022/01/01 00:39:44;;;;;;;;;;;19.70;61.20;;;;;;5000015;28;20357;-89
2022/01/01 00:42:10;;;;;;;;;;;19.70;61.40;;;;;;5000213;28;19932;-90
2022/01/01 00:44:35;;;;;;;;;;;19.70;61.30;;;;;;5018521;28;19909;-89
2022/01/01 00:47:02;;;;;;;;;;;19.70;61.30;;;;;;5001191;28;20036;-90
2022/01/01 00:49:28;;;;;;;;;;;19.70;61.30;;;;;;5018649;28;20268;-90
2022/01/01 00:51:54;;;;;;;;;;;19.70;61.10;;;;;;5000608;28;19913;-91
2022/01/01 00:54:22;;;;;;;;;;;19.60;61.10;;;;;;5011265;28;19948;-90
2022/01/01 00:56:47;;;;;;;;;;;19.70;61.30;;;;;;5019868;28;19909;-89
2022/01/01 00:59:13;;;;;;;;;;;19.70;61.30;;;;;;5037258;28;20004;-89
2022/01/01 01:01:38;;;;;;;;;;;19.70;61.50;;;;;;5018901;28;20007;-90
2022/01/01 01:04:04;;;;;;;;;;;19.70;61.30;;;;;;5000411;28;19913;-89
2022/01/01 01:06:30;;;;;;;;;;;19.70;61.20;;;;;;4997782;28;19914;-89
2022/01/01 01:08:58;;;;;;;;;;;19.70;61.20;;;;;;4998336;28;19918;-90
2022/01/01 01:11:24;;;;;;;;;;;19.70;61.30;;;;;;4979916;28;19910;-89
2022/01/01 01:13:57;;;;;;;;;;;19.70;61.40;;;;;;4980138;28;19944;-89
2022/01/01 01:16:23;;;;;;;;;;;19.70;61.30;;;;;;5000448;28;19909;-89
2022/01/01 01:18:49;;;;;;;;;;;19.70;61.30;;;;;;4999690;28;19929;-88
2022/01/01 01:21:15;;;;;;;;;;;19.70;60.90;;;;;;5000065;28;19921;-89
2022/01/01 01:23:41;;;;;;;;;;;19.70;60.90;;;;;;4999431;28;19921;-89
2022/01/01 01:26:08;;;;;;;;;;;19.70;61.00;;;;;;4998637;28;19971;-89
2022/01/01 01:28:34;;;;;;;;;;;19.60;61.00;;;;;;4996008;28;19917;-89
2022/01/01 01:31:00;;;;;;;;;;;19.60;61.10;;;;;;4997084;28;19937;-88
2022/01/01 01:33:25;;;;;;;;;;;19.70;61.00;;;;;;5002596;28;19939;-89
2022/01/01 01:35:51;;;;;;;;;;;19.60;61.10;;;;;;5016728;28;19917;-90
2022/01/01 01:38:16;;;;;;;;;;;19.60;61.00;;;;;;4992643;28;19921;-89
2022/01/01 01:40:42;;;;;;;;;;;19.60;61.00;;;;;;4980074;28;19910;-89
2022/01/01 01:43:11;;;;;;;;;;;19.60;61.10;;;;;;4995509;28;19925;-88
2022/01/01 01:45:36;;;;;;;;;;;19.60;60.90;;;;;;4979157;28;19922;-88
2022/01/01 01:48:02;;;;;;;;;;;19.50;60.90;;;;;;5003762;28;20045;-87
2022/01/01 01:50:28;;;;;;;;;;;19.60;61.20;;;;;;4978529;28;20068;-88
2022/01/01 01:52:58;;;;;;;;;;;19.50;61.20;;;;;;4988020;28;19972;-88
2022/01/01 01:55:27;;;;;;;;;;;19.60;61.20;;;;;;5005695;28;20292;-90
2022/01/01 01:57:52;;;;;;;;;;;19.60;60.90;;;;;;5007410;28;19913;-88
2022/01/01 02:03:09;;;;;;;;;;;19.60;61.00;;;;;;4967285;28;19921;-87
2022/01/01 02:05:35;;;;;;;;;;;19.60;60.90;;;;;;4990478;28;19925;-87
2022/01/01 02:08:01;;;;;;;;;;;19.60;61.00;;;;;;5010171;28;20349;-87
2022/01/01 02:10:27;;;;;;;;;;;19.50;61.00;;;;;;5006805;28;19927;-87
2022/01/01 02:12:55;;;;;;;;;;;19.60;61.20;;;;;;5015511;28;19914;-88
2022/01/01 02:15:40;;;;;;;;;;;19.60;61.10;;;;;;4997664;28;19918;-87
2022/01/01 02:18:06;;;;;;;;;;;19.60;61.30;;;;;;5012668;28;19909;-87
2022/01/01 02:20:31;;;;;;;;;;;19.60;61.20;;;;;;5015557;28;19971;-87
2022/01/01 02:23:00;;;;;;;;;;;19.60;60.90;;;;;;5015372;28;20307;-88
2022/01/01 02:25:26;;;;;;;;;;;19.60;61.00;;;;;;4998100;28;19921;-87
2022/01/01 02:27:52;;;;;;;;;;;19.60;61.30;;;;;;5015788;28;20051;-87
2022/01/01 02:30:17;;;;;;;;;;;19.60;61.10;;;;;;5004933;28;19929;-87
2022/01/01 02:32:43;;;;;;;;;;;19.60;61.10;;;;;;4996971;28;20281;-88
2022/01/01 02:35:09;;;;;;;;;;;19.50;60.80;;;;;;4978641;28;19972;-89
2022/01/01 02:37:36;;;;;;;;;;;19.60;61.00;;;;;;5002378;28;19967;-88
2022/01/01 02:40:02;;;;;;;;;;;19.60;60.80;;;;;;4990235;28;20357;-88
2022/01/01 02:42:31;;;;;;;;;;;19.50;60.80;;;;;;5011661;28;20356;-88
2022/01/01 02:44:58;;;;;;;;;;;19.60;61.10;;;;;;5006541;28;19917;-87
2022/01/01 02:47:24;;;;;;;;;;;19.60;61.20;;;;;;5013966;28;19921;-89
2022/01/01 02:49:49;;;;;;;;;;;19.60;61.20;;;;;;5003086;28;20679;-89
2022/01/01 02:52:15;;;;;;;;;;;19.70;61.10;;;;;;5015069;28;19929;-89
2022/01/01 02:54:40;;;;;;;;;;;19.60;61.00;;;;;;5012515;28;20482;-88
2022/01/01 02:57:06;;;;;;;;;;;19.60;60.90;;;;;;5000233;28;19921;-88
2022/01/01 02:59:31;;;;;;;;;;;19.70;61.00;;;;;;5000568;28;19918;-88
2022/01/01 03:01:56;;;;;;;;;;;19.60;60.80;;;;;;5005264;28;20447;-88
2022/01/01 03:04:22;;;;;;;;;;;19.60;60.80;;;;;;5007783;28;19925;-89
2022/01/01 03:06:53;;;;;;;;;;;19.60;60.70;;;;;;5015356;28;19988;-89
2022/01/01 03:09:23;;;;;;;;;;;19.50;60.90;;;;;;4998000;28;20008;-89
2022/01/01 03:11:51;;;;;;;;;;;19.60;60.90;;;;;;4998397;28;19917;-89
2022/01/01 03:14:17;;;;;;;;;;;19.50;60.60;;;;;;4998506;28;20020;-88
2022/01/01 03:16:44;;;;;;;;;;;19.50;60.70;;;;;;4998478;28;19914;-89
2022/01/01 03:19:09;;;;;;;;;;;19.50;60.50;;;;;;5001403;28;19932;-88
2022/01/01 03:21:34;;;;;;;;;;;19.50;60.70;;;;;;5002968;28;19917;-89
2022/01/01 03:24:00;;;;;;;;;;;19.50;60.80;;;;;;5000228;28;20016;-90
2022/01/01 03:26:25;;;;;;;;;;;19.50;60.70;;;;;;4999644;28;19918;-89
2022/01/01 03:28:51;;;;;;;;;;;19.50;60.80;;;;;;4999976;28;19918;-88
2022/01/01 03:31:17;;;;;;;;;;;19.50;60.70;;;;;;5012659;28;20717;-89
2022/01/01 03:33:42;;;;;;;;;;;19.50;60.80;;;;;;5004373;28;19921;-89
2022/01/01 03:36:08;;;;;;;;;;;19.50;60.70;;;;;;5005321;28;19920;-89
2022/01/01 03:38:34;;;;;;;;;;;19.50;60.50;;;;;;5011495;28;19924;-89
2022/01/01 03:41:00;;;;;;;;;;;19.50;60.60;;;;;;5000915;28;19922;-88
2022/01/01 03:43:26;;;;;;;;;;;19.50;60.70;;;;;;4999188;28;19963;-88
2022/01/01 03:45:52;;;;;;;;;;;19.50;60.70;;;;;;5010104;28;19925;-89
2022/01/01 03:48:17;;;;;;;;;;;19.50;60.50;;;;;;5013637;28;19916;-89
2022/01/01 03:50:43;;;;;;;;;;;19.50;60.70;;;;;;5033534;28;19921;-88
2022/01/01 03:53:09;;;;;;;;;;;19.50;60.50;;;;;;5033492;28;19948;-88
2022/01/01 03:55:35;;;;;;;;;;;19.50;60.70;;;;;;5015433;28;20265;-88
2022/01/01 03:58:00;;;;;;;;;;;19.60;60.60;;;;;;5033466;28;19910;-88
2022/01/01 04:00:26;;;;;;;;;;;19.50;60.60;;;;;;5016262;28;19943;-88
2022/01/01 04:02:51;;;;;;;;;;;19.50;60.70;;;;;;5015887;28;19921;-88
2022/01/01 04:05:17;;;;;;;;;;;19.50;60.80;;;;;;4999704;28;19925;-89
2022/01/01 04:07:42;;;;;;;;;;;19.50;60.70;;;;;;4977032;28;20001;-88
2022/01/01 04:10:08;;;;;;;;;;;19.50;60.70;;;;;;4993729;28;20273;-89
2022/01/01 04:12:34;;;;;;;;;;;19.60;60.70;;;;;;4976425;28;19909;-87
2022/01/01 04:15:01;;;;;;;;;;;19.60;60.70;;;;;;4988714;28;19921;-87
2022/01/01 04:17:27;;;;;;;;;;;19.50;60.70;;;;;;5014145;28;19910;-88
2022/01/01 04:19:53;;;;;;;;;;;19.60;60.70;;;;;;5015249;28;19924;-88
2022/01/01 04:22:18;;;;;;;;;;;19.50;60.60;;;;;;4996391;28;20288;-88
2022/01/01 04:24:44;;;;;;;;;;;19.60;60.70;;;;;;5013769;28;19944;-88
2022/01/01 04:27:09;;;;;;;;;;;19.60;60.60;;;;;;4995653;28;19976;-88
2022/01/01 04:29:35;;;;;;;;;;;19.60;60.50;;;;;;5013326;28;20373;-88
2022/01/01 04:32:01;;;;;;;;;;;19.60;60.50;;;;;;4980489;28;20697;-88
2022/01/01 04:34:28;;;;;;;;;;;19.60;60.70;;;;;;4976987;28;19918;-88
2022/01/01 04:37:08;;;;;;;;;;;19.60;60.70;;;;;;4976119;28;19914;-88
2022/01/01 04:39:33;;;;;;;;;;;19.50;60.60;;;;;;4980072;28;20365;-88
2022/01/01 04:41:58;;;;;;;;;;;19.60;60.50;;;;;;5009785;28;19976;-88
2022/01/01 04:44:24;;;;;;;;;;;19.50;60.60;;;;;;4976664;28;19918;-88
2022/01/01 04:46:50;;;;;;;;;;;19.50;60.70;;;;;;4993738;28;19929;-88
2022/01/01 04:49:15;;;;;;;;;;;19.50;60.40;;;;;;4976854;28;19918;-89
2022/01/01 04:51:41;;;;;;;;;;;19.50;60.40;;;;;;5002426;28;20404;-88
2022/01/01 04:54:14;;;;;;;;;;;19.50;60.30;;;;;;4995211;28;20051;-89
2022/01/01 04:56:43;;;;;;;;;;;19.50;60.40;;;;;;4995415;28;19909;-89
2022/01/01 04:59:10;;;;;;;;;;;19.50;60.60;;;;;;4989221;28;19921;-88
2022/01/01 05:01:35;;;;;;;;;;;19.50;60.60;;;;;;4993384;28;19920;-88
2022/01/01 05:04:01;;;;;;;;;;;19.50;60.60;;;;;;4993616;28;20016;-88
2022/01/01 05:06:26;;;;;;;;;;;19.50;60.60;;;;;;4992916;28;19945;-88
2022/01/01 05:08:51;;;;;;;;;;;19.50;60.70;;;;;;5008141;28;19921;-88
2022/01/01 05:11:17;;;;;;;;;;;19.50;60.60;;;;;;4980335;28;19960;-88
2022/01/01 05:13:42;;;;;;;;;;;19.60;60.80;;;;;;4993263;28;19910;-88
2022/01/01 05:16:10;;;;;;;;;;;19.50;60.50;;;;;;4976034;28;20317;-89
2022/01/01 05:18:36;;;;;;;;;;;19.60;60.50;;;;;;4976041;28;20358;-88
2022/01/01 05:21:02;;;;;;;;;;;19.50;60.50;;;;;;4993438;28;19925;-88
2022/01/01 05:23:27;;;;;;;;;;;19.50;60.60;;;;;;4976073;28;19910;-88
2022/01/01 05:25:53;;;;;;;;;;;19.50;60.80;;;;;;4995764;28;19921;-89
2022/01/01 05:28:18;;;;;;;;;;;19.60;60.70;;;;;;4999628;28;19917;-88
2022/01/01 05:30:44;;;;;;;;;;;19.50;60.70;;;;;;5016508;28;19928;-88
2022/01/01 05:33:09;;;;;;;;;;;19.50;60.50;;;;;;5016437;28;19918;-88
2022/01/01 05:35:34;;;;;;;;;;;19.50;60.40;;;;;;4995961;28;19971;-88
2022/01/01 05:38:00;;;;;;;;;;;19.50;60.40;;;;;;5016514;28;19914;-88
2022/01/01 05:40:25;;;;;;;;;;;19.50;60.40;;;;;;4998386;28;19967;-88
2022/01/01 05:42:51;;;;;;;;;;;19.50;60.60;;;;;;4998669;28;19913;-88
2022/01/01 05:45:16;;;;;;;;;;;19.40;60.50;;;;;;5017039;28;20023;-88
2022/01/01 05:47:42;;;;;;;;;;;19.50;60.60;;;;;;4986930;28;20385;-88
2022/01/01 05:50:07;;;;;;;;;;;19.50;60.70;;;;;;4979351;28;20342;-88
2022/01/01 05:52:33;;;;;;;;;;;19.50;60.60;;;;;;4978823;28;19910;-88
2022/01/01 05:54:58;;;;;;;;;;;19.50;60.70;;;;;;4981098;28;19933;-87
2022/01/01 05:57:24;;;;;;;;;;;19.50;60.70;;;;;;4991588;28;19914;-89
2022/01/01 05:59:49;;;;;;;;;;;19.40;60.80;;;;;;4979474;28;20405;-88
2022/01/01 06:02:14;;;;;;;;;;;19.40;60.80;;;;;;4978988;28;20024;-88
2022/01/01 06:04:40;;;;;;;;;;;19.40;60.60;;;;;;4979504;28;19941;-88
2022/01/01 06:07:07;;;;;;;;;;;19.40;60.70;;;;;;4978442;28;19914;-87
2022/01/01 06:09:32;;;;;;;;;;;19.40;60.80;;;;;;4978497;28;20374;-87
2022/01/01 06:11:58;;;;;;;;;;;19.40;60.80;;;;;;4977962;28;19936;-88
2022/01/01 06:14:23;;;;;;;;;;;19.40;60.70;;;;;;4978547;28;20000;-88
2022/01/01 06:16:49;;;;;;;;;;;19.40;60.40;;;;;;4978444;28;20393;-88
2022/01/01 06:19:14;;;;;;;;;;;19.40;60.40;;;;;;4978402;28;20277;-88
2022/01/01 06:21:40;;;;;;;;;;;19.40;60.40;;;;;;4978751;28;19922;-88
2022/01/01 06:24:05;;;;;;;;;;;19.40;60.40;;;;;;4995983;28;19945;-88
2022/01/01 06:26:31;;;;;;;;;;;19.40;60.50;;;;;;4978623;28;20277;-88
2022/01/01 06:28:56;;;;;;;;;;;19.40;60.50;;;;;;4978684;28;19921;-88
2022/01/01 06:31:22;;;;;;;;;;;19.40;60.50;;;;;;4978505;28;19917;-89
2022/01/01 06:33:47;;;;;;;;;;;19.40;60.50;;;;;;4995230;28;19910;-88
2022/01/01 06:36:13;;;;;;;;;;;19.40;60.40;;;;;;4992855;28;19913;-89
2022/01/01 06:38:39;;;;;;;;;;;19.40;60.60;;;;;;4994188;28;19910;-88
2022/01/01 06:41:05;;;;;;;;;;;19.40;60.60;;;;;;4994414;28;19910;-88
2022/01/01 06:43:30;;;;;;;;;;;19.40;60.60;;;;;;4978472;28;20313;-88
2022/01/01 06:45:56;;;;;;;;;;;19.40;60.50;;;;;;4978535;28;19988;-88
2022/01/01 06:48:21;;;;;;;;;;;19.40;60.50;;;;;;4978427;28;19932;-88
2022/01/01 06:50:46;;;;;;;;;;;19.40;60.40;;;;;;4995812;28;20285;-87
2022/01/01 06:53:12;;;;;;;;;;;19.40;60.30;;;;;;4995076;28;19915;-87
2022/01/01 06:55:37;;;;;;;;;;;19.40;60.20;;;;;;4996087;28;19918;-87
2022/01/01 06:58:03;;;;;;;;;;;19.40;60.40;;;;;;4994151;28;20658;-87
2022/01/01 07:00:28;;;;;;;;;;;19.40;60.60;;;;;;5011804;28;19917;-87
2022/01/01 07:02:54;;;;;;;;;;;19.40;60.30;;;;;;4977297;28;19967;-86
2022/01/01 07:05:19;;;;;;;;;;;19.40;60.60;;;;;;4977950;28;19922;-87
2022/01/01 07:07:45;;;;;;;;;;;19.40;60.70;;;;;;4995009;28;19909;-87
2022/01/01 07:10:11;;;;;;;;;;;19.50;60.80;;;;;;5007897;28;19983;-87
2022/01/01 07:12:37;;;;;;;;;;;19.50;60.80;;;;;;5006216;28;19914;-87
2022/01/01 07:15:04;;;;;;;;;;;19.50;60.90;;;;;;4995414;28;19918;-88
2022/01/01 07:17:29;;;;;;;;;;;19.50;60.60;;;;;;4989623;28;20450;-87
2022/01/01 07:19:54;;;;;;;;;;;19.50;60.80;;;;;;4997187;28;19956;-87
2022/01/01 07:22:20;;;;;;;;;;;19.50;60.80;;;;;;5014302;28;20008;-87
2022/01/01 07:24:45;;;;;;;;;;;19.50;60.60;;;;;;4985292;28;20456;-87
2022/01/01 07:27:12;;;;;;;;;;;19.50;60.60;;;;;;4989289;28;20325;-87
2022/01/01 07:29:38;;;;;;;;;;;19.40;60.70;;;;;;5005105;28;20255;-88
2022/01/01 07:32:03;;;;;;;;;;;19.40;60.90;;;;;;4985780;28;20000;-88
2022/01/01 07:34:29;;;;;;;;;;;19.40;61.00;;;;;;4996787;28;20356;-88
2022/01/01 07:36:54;;;;;;;;;;;19.40;60.60;;;;;;4990645;28;20037;-87
2022/01/01 07:39:20;;;;;;;;;;;19.40;60.80;;;;;;5005313;28;20328;-86
2022/01/01 07:41:45;;;;;;;;;;;19.30;60.60;;;;;;4996603;28;19967;-88
2022/01/01 07:44:13;;;;;;;;;;;19.40;60.50;;;;;;4990651;28;19918;-88
2022/01/01 07:46:39;;;;;;;;;;;19.40;60.80;;;;;;4993760;28;19917;-88
2022/01/01 07:49:04;;;;;;;;;;;19.40;60.70;;;;;;4993726;28;20026;-87
2022/01/01 07:51:29;;;;;;;;;;;19.30;60.70;;;;;;4994166;28;19913;-87
2022/01/01 07:53:55;;;;;;;;;;;19.30;60.60;;;;;;4994260;28;19910;-88
2022/01/01 07:56:20;;;;;;;;;;;19.40;60.70;;;;;;4994356;28;19963;-87
2022/01/01 07:58:46;;;;;;;;;;;19.30;60.60;;;;;;4994632;28;19910;-88
2022/01/01 08:01:11;;;;;;;;;;;19.30;60.70;;;;;;4994132;28;19914;-87
2022/01/01 08:03:37;;;;;;;;;;;19.40;60.50;;;;;;4994570;28;19992;-88
2022/01/01 08:06:02;;;;;;;;;;;19.30;60.60;;;;;;4976883;28;20309;-88
2022/01/01 08:08:28;;;;;;;;;;;19.40;60.70;;;;;;5013416;28;19942;-87
2022/01/01 08:10:53;;;;;;;;;;;19.40;60.80;;;;;;4996023;28;19918;-88
2022/01/01 08:13:24;;;;;;;;;;;19.40;60.70;;;;;;4992762;28;19924;-88
2022/01/01 08:15:50;;;;;;;;;;;19.40;60.70;;;;;;4994635;28;19922;-88
2022/01/01 08:18:16;;;;;;;;;;;19.40;60.80;;;;;;4992676;28;20371;-88
2022/01/01 08:20:41;;;;;;;;;;;19.40;60.80;;;;;;4976426;28;20012;-88
2022/01/01 08:23:07;;;;;;;;;;;19.40;60.40;;;;;;4994362;28;19940;-89
2022/01/01 08:25:33;;;;;;;;;;;19.40;60.50;;;;;;4995617;28;19925;-87
2022/01/01 08:27:58;;;;;;;;;;;19.40;60.60;;;;;;4995853;28;19913;-88
2022/01/01 08:30:24;;;;;;;;;;;19.40;60.10;;;;;;4996505;28;20520;-88
2022/01/01 08:32:49;;;;;;;;;;;19.40;60.40;;;;;;4996706;28;19921;-89
2022/01/01 08:35:15;;;;;;;;;;;19.40;60.70;;;;;;4996240;28;19925;-88
2022/01/01 08:37:41;;;;;;;;;;;19.50;60.50;;;;;;5013691;28;19915;-88
2022/01/01 08:40:06;;;;;;;;;;;19.40;59.90;;;;;;4996126;28;19925;-88
2022/01/01 08:42:32;;;;;;;;;;;19.40;60.10;;;;;;4996211;28;20075;-88
2022/01/01 08:44:58;;;;;;;;;;;19.50;60.50;;;;;;4996685;28;19917;-89
2022/01/01 08:47:26;;;;;;;;;;;19.50;60.30;;;;;;4996214;28;20353;-89
2022/01/01 08:49:55;;;;;;;;;;;19.50;60.50;;;;;;4995767;28;19917;-90
2022/01/01 08:52:24;;;;;;;;;;;19.60;60.50;;;;;;4995423;28;19916;-88
2022/01/01 08:54:55;;;;;;;;;;;19.60;60.30;;;;;;5013280;28;19921;-88
2022/01/01 08:57:21;;;;;;;;;;;19.70;60.20;;;;;;5013988;28;19959;-88
2022/01/01 08:59:46;;;;;;;;;;;19.70;60.80;;;;;;4996342;28;19919;-88
2022/01/01 09:02:12;;;;;;;;;;;19.80;60.60;;;;;;4998782;28;20021;-88
2022/01/01 09:04:38;;;;;;;;;;;19.80;60.50;;;;;;5017064;28;19928;-87
2022/01/01 09:07:03;;;;;;;;;;;19.90;60.40;;;;;;4999142;28;19910;-87
2022/01/01 09:09:29;;;;;;;;;;;20.00;60.40;;;;;;5017929;28;20301;-87
2022/01/01 09:11:54;;;;;;;;;;;20.00;60.60;;;;;;4992209;28;20004;-89
2022/01/01 09:14:20;;;;;;;;;;;20.10;60.30;;;;;;4998016;28;19917;-88
2022/01/01 09:16:45;;;;;;;;;;;20.00;59.20;;;;;;4980126;28;20000;-89
2022/01/01 09:19:11;;;;;;;;;;;20.10;59.80;;;;;;4980241;28;19917;-88
2022/01/01 09:21:36;;;;;;;;;;;20.10;60.00;;;;;;4980640;28;20416;-89
2022/01/01 09:24:02;;;;;;;;;;;20.10;60.00;;;;;;4980559;28;19918;-89
2022/01/01 09:26:27;;;;;;;;;;;20.10;59.50;;;;;;4980253;28;20290;-89
2022/01/01 09:28:53;;;;;;;;;;;20.10;58.90;;;;;;4998118;28;19913;-89
2022/01/01 09:31:19;;;;;;;;;;;20.10;59.40;;;;;;4979998;28;19918;-88
2022/01/01 09:33:44;;;;;;;;;;;20.10;59.30;;;;;;4979526;28;20461;-88
2022/01/01 09:36:10;;;;;;;;;;;20.10;59.20;;;;;;4999839;28;20017;-89
2022/01/01 09:38:36;;;;;;;;;;;20.10;59.40;;;;;;4999151;28;19921;-89
2022/01/01 09:41:02;;;;;;;;;;;20.10;59.50;;;;;;5017831;28;20348;-88
2022/01/01 09:43:30;;;;;;;;;;;20.10;59.10;;;;;;5016622;28;19924;-88
2022/01/01 09:45:56;;;;;;;;;;;20.10;59.00;;;;;;5017622;28;19924;-88
2022/01/01 09:48:22;;;;;;;;;;;20.20;59.50;;;;;;4990483;28;19910;-88
2022/01/01 09:50:49;;;;;;;;;;;20.20;59.60;;;;;;4996020;28;20377;-89
2022/01/01 09:53:18;;;;;;;;;;;20.30;59.60;;;;;;4979851;28;19954;-89
2022/01/01 09:55:43;;;;;;;;;;;20.30;59.20;;;;;;4997922;28;19924;-89
2022/01/01 09:58:09;;;;;;;;;;;20.40;59.20;;;;;;4984026;28;20368;-90
2022/01/01 10:00:34;;;;;;;;;;;20.50;59.40;;;;;;4980895;28;19981;-89
2022/01/01 10:03:00;;;;;;;;;;;20.50;59.50;;;;;;5007842;28;20258;-87
2022/01/01 10:05:26;;;;;;;;;;;20.60;59.30;;;;;;4986245;28;19964;-88
2022/01/01 10:07:51;;;;;;;;;;;20.70;58.90;;;;;;4997867;28;19910;-88
2022/01/01 10:10:19;;;;;;;;;;;20.70;58.40;;;;;;4979644;28;20634;-87
2022/01/01 10:12:45;;;;;;;;;;;20.70;57.80;;;;;;5003149;28;19917;-88
2022/01/01 10:15:11;;;;;;;;;;;20.70;57.20;;;;;;5014334;28;19925;-88
2022/01/01 10:17:37;;;;;;;;;;;20.70;56.70;;;;;;5010808;28;19910;-88
2022/01/01 10:20:03;;;;;;;;;;;20.80;57.50;;;;;;4979359;28;19925;-88
2022/01/01 10:22:29;;;;;;;;;;;21.00;57.70;;;;;;5016009;28;20369;-88
2022/01/01 10:27:53;;;;;;;;;;;21.30;58.10;;;;;;4997073;28;19956;-88
2022/01/01 10:30:19;;;;;;;;;;;21.50;59.00;;;;;;4995130;28;20396;-89
2022/01/01 10:33:03;;;;;;;;;;;21.70;58.60;;;;;;4995800;28;19913;-89
2022/01/01 10:35:34;;;;;;;;;;;21.80;58.00;;;;;;4997872;28;19945;-88
2022/01/01 10:37:59;;;;;;;;;;;22.00;57.70;;;;;;4980635;28;19986;-89
2022/01/01 10:40:28;;;;;;;;;;;22.00;57.40;;;;;;4979151;28;19946;-88
2022/01/01 10:42:54;;;;;;;;;;;22.10;57.20;;;;;;4979670;28;19945;-88
2022/01/01 10:45:29;;;;;;;;;;;22.30;57.50;;;;;;4979834;28;19968;-90
2022/01/01 10:48:20;;;;;;;;;;;22.30;55.80;;;;;;4997547;28;19909;-89
2022/01/01 10:50:46;;;;;;;;;;;22.20;55.80;;;;;;4987107;28;20012;-89
2022/01/01 10:53:19;;;;;;;;;;;22.30;56.30;;;;;;4984239;28;19960;-89
2022/01/01 10:55:45;;;;;;;;;;;22.30;56.90;;;;;;4987637;28;19917;-89
2022/01/01 10:58:18;;;;;;;;;;;22.40;56.50;;;;;;4979721;28;19916;-89
2022/01/01 11:00:44;;;;;;;;;;;22.50;56.10;;;;;;4980054;28;19972;-89
2022/01/01 11:03:10;;;;;;;;;;;22.50;54.40;;;;;;4979673;28;20365;-89
2022/01/01 11:05:36;;;;;;;;;;;22.50;53.70;;;;;;4995700;28;19925;-88
2022/01/01 11:08:07;;;;;;;;;;;22.50;53.50;;;;;;4999384;28;20365;-88
2022/01/01 11:10:34;;;;;;;;;;;22.50;54.00;;;;;;4989288;28;20289;-89
2022/01/01 11:13:00;;;;;;;;;;;22.60;53.70;;;;;;4999664;28;19914;-89
2022/01/01 11:15:26;;;;;;;;;;;22.60;53.20;;;;;;4982156;28;19924;-89
2022/01/01 11:17:52;;;;;;;;;;;22.50;52.80;;;;;;4999003;28;19910;-89
2022/01/01 11:20:18;;;;;;;;;;;22.40;53.70;;;;;;5000505;28;19917;-88
2022/01/01 11:22:43;;;;;;;;;;;22.40;54.20;;;;;;4999031;28;19920;-90
2022/01/01 11:25:09;;;;;;;;;;;22.30;54.10;;;;;;4999392;28;19921;-87
2022/01/01 11:27:36;;;;;;;;;;;22.30;52.90;;;;;;4991737;28;19910;-88
2022/01/01 11:30:06;;;;;;;;;;;22.30;53.70;;;;;;4996484;28;20021;-88
2022/01/01 11:32:48;;;;;;;;;;;22.20;54.20;;;;;;4979259;28;20362;-87
2022/01/01 11:35:27;;;;;;;;;;;22.20;53.50;;;;;;4979522;28;19967;-89
2022/01/01 11:38:07;;;;;;;;;;;22.10;53.10;;;;;;4987880;28;19956;-88
2022/01/01 11:40:40;;;;;;;;;;;22.00;53.40;;;;;;5018790;28;19924;-87
2022/01/01 11:43:05;;;;;;;;;;;22.10;53.60;;;;;;5017699;28;19922;-89
2022/01/01 11:45:45;;;;;;;;;;;22.10;53.60;;;;;;5017418;28;19917;-86
2022/01/01 11:48:31;;;;;;;;;;;22.10;53.10;;;;;;4999595;28;19913;-89
2022/01/01 11:50:57;;;;;;;;;;;22.00;52.30;;;;;;5017835;28;19976;-87
2022/01/01 11:53:32;;;;;;;;;;;22.00;52.90;;;;;;4999436;28;19910;-89
2022/01/01 11:56:05;;;;;;;;;;;21.90;53.00;;;;;;4996814;28;19918;-89
2022/01/01 11:58:47;;;;;;;;;;;21.90;53.40;;;;;;4995151;28;20254;-88
2022/01/01 12:01:15;;;;;;;;;;;21.90;53.60;;;;;;4988830;28;20700;-88
2022/01/01 12:03:52;;;;;;;;;;;21.90;53.90;;;;;;4979653;28;19917;-86
2022/01/01 12:06:19;;;;;;;;;;;21.90;53.00;;;;;;4990748;28;20423;-87
2022/01/01 12:08:53;;;;;;;;;;;21.90;52.20;;;;;;5013082;28;19910;-86
2022/01/01 12:11:39;;;;;;;;;;;21.90;52.40;;;;;;5001910;28;19902;-88
2022/01/01 12:14:04;;;;;;;;;;;21.90;51.90;;;;;;4994756;28;19917;-89
2022/01/01 12:16:56;;;;;;;;;;;21.90;50.90;;;;;;4999904;28;19924;-88
2022/01/01 12:19:23;;;;;;;;;;;21.90;51.50;;;;;;4998558;28;19917;-89
2022/01/01 12:21:59;;;;;;;;;;;21.80;50.40;;;;;;5008200;28;19921;-89
2022/01/01 12:24:26;;;;;;;;;;;21.80;50.40;;;;;;4996672;28;19968;-89
2022/01/01 12:26:52;;;;;;;;;;;21.80;51.40;;;;;;4990214;28;19924;-89
2022/01/01 12:29:21;;;;;;;;;;;21.80;51.70;;;;;;5003122;28;19918;-89
2022/01/01 12:31:56;;;;;;;;;;;21.90;51.70;;;;;;4986621;28;19961;-88
2022/01/01 12:34:25;;;;;;;;;;;21.80;50.90;;;;;;5002983;28;20265;-88
2022/01/01 12:36:54;;;;;;;;;;;21.80;51.20;;;;;;4995118;28;19925;-89
2022/01/01 12:39:20;;;;;;;;;;;21.80;51.00;;;;;;5001157;28;20047;-89
2022/01/01 12:41:45;;;;;;;;;;;21.80;50.90;;;;;;4981766;28;20024;-89
2022/01/01 12:44:19;;;;;;;;;;;21.80;50.70;;;;;;4987822;28;19965;-88
2022/01/01 12:46:52;;;;;;;;;;;21.80;51.40;;;;;;5010815;28;20052;-89
2022/01/01 12:49:17;;;;;;;;;;;21.80;51.40;;;;;;5015186;28;20408;-89
2022/01/01 12:51:43;;;;;;;;;;;21.80;51.50;;;;;;5001046;28;19922;-90
2022/01/01 12:54:13;;;;;;;;;;;21.90;50.80;;;;;;4996042;28;19910;-90
2022/01/01 12:56:42;;;;;;;;;;;21.90;51.30;;;;;;5001738;28;19924;-91
2022/01/01 12:59:10;;;;;;;;;;;21.90;51.70;;;;;;4991667;28;19969;-88
2022/01/01 13:01:40;;;;;;;;;;;22.00;52.20;;;;;;5013842;28;19918;-89
2022/01/01 13:04:06;;;;;;;;;;;22.00;52.00;;;;;;5010843;28;19944;-88
2022/01/01 13:06:46;;;;;;;;;;;22.00;51.90;;;;;;4991322;28;19910;-89
2022/01/01 13:09:13;;;;;;;;;;;22.00;52.50;;;;;;4991205;28;19918;-89
2022/01/01 13:11:40;;;;;;;;;;;22.00;51.40;;;;;;5011698;28;19909;-89
2022/01/01 13:14:05;;;;;;;;;;;21.90;51.20;;;;;;4994450;28;19921;-88
2022/01/01 13:16:31;;;;;;;;;;;21.80;51.50;;;;;;4994085;28;19918;-88
2022/01/01 13:18:59;;;;;;;;;;;21.90;51.70;;;;;;4987752;28;19964;-89
2022/01/01 13:21:24;;;;;;;;;;;21.90;52.20;;;;;;4993343;28;19918;-89
2022/01/01 13:23:51;;;;;;;;;;;21.90;52.40;;;;;;4990753;28;19963;-89
2022/01/01 13:26:17;;;;;;;;;;;21.90;52.30;;;;;;5015682;28;19944;-89
2022/01/01 13:28:45;;;;;;;;;;;21.90;51.90;;;;;;5012179;28;20004;-89
2022/01/01 13:31:16;;;;;;;;;;;21.80;51.60;;;;;;4989315;28;19918;-89
2022/01/01 13:33:46;;;;;;;;;;;21.80;51.70;;;;;;4998115;28;20281;-89
2022/01/01 13:36:27;;;;;;;;;;;21.80;52.00;;;;;;4987907;28;19960;-88
2022/01/01 13:38:53;;;;;;;;;;;21.70;51.70;;;;;;5014635;28;19940;-88
2022/01/01 13:41:18;;;;;;;;;;;21.70;51.70;;;;;;4989103;28;19909;-88
2022/01/01 13:43:44;;;;;;;;;;;21.70;51.70;;;;;;4982391;28;19917;-88
2022/01/01 13:46:14;;;;;;;;;;;21.60;51.70;;;;;;4980218;28;19993;-89
2022/01/01 13:48:43;;;;;;;;;;;21.50;51.10;;;;;;4987823;28;19918;-87
2022/01/01 13:51:09;;;;;;;;;;;21.50;51.70;;;;;;4998958;28;19917;-88
2022/01/01 13:53:35;;;;;;;;;;;21.40;50.90;;;;;;4995446;28;19918;-87
2022/01/01 13:56:06;;;;;;;;;;;21.40;50.70;;;;;;5010158;28;19910;-89
2022/01/01 13:58:37;;;;;;;;;;;21.30;50.40;;;;;;4993723;28;19921;-88
2022/01/01 14:01:03;;;;;;;;;;;21.30;50.40;;;;;;4999068;28;20051;-87
2022/01/01 14:03:29;;;;;;;;;;;21.30;50.40;;;;;;4992994;28;20353;-87
2022/01/01 14:05:54;;;;;;;;;;;21.20;49.90;;;;;;4984192;28;19910;-87
2022/01/01 14:08:21;;;;;;;;;;;21.10;49.70;;;;;;4992419;28;19926;-87
2022/01/01 14:10:58;;;;;;;;;;;21.10;49.50;;;;;;4982804;28;19917;-87
2022/01/01 14:13:26;;;;;;;;;;;21.10;49.80;;;;;;5004057;28;20000;-86
2022/01/01 14:15:52;;;;;;;;;;;21.10;50.20;;;;;;4983403;28;20014;-87
2022/01/01 14:18:25;;;;;;;;;;;21.10;50.60;;;;;;4987621;28;19922;-87
2022/01/01 14:20:52;;;;;;;;;;;21.10;49.90;;;;;;4993162;28;20003;-87